createdAt,value
2023-07-07T00:02:45.585Z,11.82
2023-07-07T00:05:35.904Z,9.95
2023-07-07T00:08:25.632Z,8.95
2023-07-07T00:11:14.980Z,10.27
2023-07-07T00:14:06.191Z,11.55
2023-07-07T00:17:03.127Z,7.50
2023-07-07T00:19:52.580Z,9.00
2023-07-07T00:22:42.611Z,9.55
2023-07-07T00:25:31.918Z,8.88
2023-07-07T00:28:21.224Z,7.78
2023-07-07T00:31:12.141Z,6.95
2023-07-07T00:34:01.516Z,9.45
2023-07-07T00:36:50.939Z,4.45
2023-07-07T00:39:40.521Z,5.03
2023-07-07T00:42:29.854Z,4.35
2023-07-07T00:45:22.372Z,5.50
2023-07-07T00:51:12.810Z,3.65
2023-07-07T00:54:08.195Z,2.22
2023-07-07T00:56:58.296Z,1.83
2023-07-07T00:59:49.643Z,1.45
2023-07-07T01:02:39.216Z,1.92
2023-07-07T01:05:32.981Z,2.22
2023-07-07T01:08:23.138Z,2.78
2023-07-07T01:11:12.481Z,1.70
2023-07-07T01:14:04.821Z,3.10
2023-07-07T01:17:10.753Z,1.42
2023-07-07T01:20:25.258Z,1.17
2023-07-07T01:24:19.918Z,3.05
2023-07-07T01:27:30.919Z,1.58
2023-07-07T01:30:41.518Z,1.85
2023-07-07T01:33:33.677Z,1.38
2023-07-07T01:36:23.057Z,1.03
2023-07-07T01:39:14.383Z,0.80
2023-07-07T01:42:10.122Z,1.20
2023-07-07T01:45:09.055Z,3.08
2023-07-07T01:48:11.867Z,0.95
2023-07-07T01:51:03.195Z,1.10
2023-07-07T01:53:55.096Z,0.80
2023-07-07T01:56:47.081Z,0.93
2023-07-07T01:59:36.733Z,1.33
2023-07-07T02:02:27.390Z,3.55
2023-07-07T02:05:18.940Z,3.20
2023-07-07T02:08:08.627Z,2.60
2023-07-07T02:10:58.240Z,3.55
2023-07-07T02:13:47.923Z,4.47
2023-07-07T02:16:37.309Z,3.42
2023-07-07T02:19:26.842Z,6.55
2023-07-07T02:22:17.598Z,1.98
2023-07-07T02:25:08.320Z,2.75
2023-07-07T02:27:57.700Z,5.22
2023-07-07T02:30:48.289Z,3.50
2023-07-07T02:33:38.968Z,4.53
2023-07-07T02:36:28.351Z,1.80
2023-07-07T02:39:19.209Z,1.88
2023-07-07T02:42:09.135Z,2.28
2023-07-07T02:45:00.671Z,2.47
2023-07-07T02:47:51.403Z,3.67
2023-07-07T02:50:40.808Z,1.15
2023-07-07T02:53:32.976Z,2.55
2023-07-07T02:56:25.239Z,1.52
2023-07-07T02:59:15.714Z,1.02
2023-07-07T03:02:05.434Z,2.75
2023-07-07T03:04:54.975Z,2.08
2023-07-07T03:07:45.209Z,1.33
2023-07-07T03:10:34.997Z,1.95
2023-07-07T03:13:27.513Z,2.92
2023-07-07T03:16:22.258Z,2.08
2023-07-07T03:19:17.756Z,2.75
2023-07-07T03:22:25.245Z,2.58
2023-07-07T03:25:22.748Z,2.30
2023-07-07T03:28:14.249Z,2.83
2023-07-07T03:31:16.790Z,2.03
2023-07-07T03:34:09.250Z,1.10
2023-07-07T03:37:02.047Z,1.52
2023-07-07T03:39:51.438Z,2.83
2023-07-07T03:42:41.406Z,0.45
2023-07-07T03:45:36.715Z,1.48
2023-07-07T03:48:29.167Z,0.52
2023-07-07T03:51:20.762Z,0.30
2023-07-07T03:54:10.176Z,0.40
2023-07-07T03:57:00.339Z,1.67
2023-07-07T03:59:51.271Z,0.90
2023-07-07T04:02:40.704Z,0.80
2023-07-07T04:05:31.579Z,1.63
2023-07-07T04:08:24.165Z,1.92
2023-07-07T04:11:17.440Z,1.20
2023-07-07T04:14:07.105Z,1.17
2023-07-07T04:16:56.603Z,2.15
2023-07-07T04:19:46.276Z,2.40
2023-07-07T04:22:37.059Z,3.75
2023-07-07T04:25:26.428Z,3.80
2023-07-07T04:28:15.722Z,3.20
2023-07-07T04:31:07.051Z,4.15
2023-07-07T04:33:57.180Z,3.08
2023-07-07T04:36:46.614Z,3.42
2023-07-07T04:39:37.320Z,4.45
2023-07-07T04:42:26.830Z,4.35
2023-07-07T04:45:16.336Z,2.60
2023-07-07T04:48:05.937Z,3.38
2023-07-07T04:51:01.075Z,4.13
2023-07-07T04:53:50.797Z,3.20
2023-07-07T04:56:41.810Z,2.78
2023-07-07T04:59:32.004Z,2.50
2023-07-07T05:02:24.304Z,5.10
2023-07-07T05:05:14.626Z,2.83
2023-07-07T05:08:03.989Z,3.17
2023-07-07T05:10:53.337Z,1.88
2023-07-07T05:13:44.621Z,3.10
2023-07-07T05:16:40.061Z,1.50
2023-07-07T05:19:29.523Z,1.52
2023-07-07T05:22:19.540Z,1.83
2023-07-07T05:25:10.828Z,1.58
2023-07-07T05:28:00.144Z,1.13
2023-07-07T05:30:51.249Z,1.35
2023-07-07T05:33:41.960Z,1.65
2023-07-07T05:36:31.292Z,1.48
2023-07-07T05:39:20.578Z,0.98
2023-07-07T05:42:10.443Z,1.20
2023-07-07T05:44:59.759Z,0.77
2023-07-07T05:47:50.477Z,1.25
2023-07-07T05:50:41.620Z,1.13
2023-07-07T05:53:30.954Z,1.20
2023-07-07T05:56:22.713Z,1.10
2023-07-07T05:59:12.109Z,0.45
2023-07-07T06:02:01.566Z,1.33
2023-07-07T06:04:52.338Z,0.22
2023-07-07T06:07:41.759Z,0.60
2023-07-07T06:10:31.051Z,1.67
2023-07-07T06:13:25.499Z,4.90
2023-07-07T06:16:15.070Z,7.07
2023-07-07T06:19:04.407Z,11.18
2023-07-07T06:21:55.319Z,9.40
2023-07-07T06:24:44.638Z,14.40
2023-07-07T06:27:34.355Z,14.13
2023-07-07T06:30:23.949Z,16.20
2023-07-07T06:33:13.280Z,15.02
2023-07-07T06:36:02.713Z,16.88
2023-07-07T06:38:53.548Z,16.55
2023-07-07T06:41:42.959Z,14.55
2023-07-07T06:44:34.108Z,17.85
2023-07-07T06:47:23.456Z,16.60
2023-07-07T06:50:19.163Z,25.90
2023-07-07T06:53:08.505Z,18.23
2023-07-07T06:55:59.388Z,24.38
2023-07-07T06:58:48.759Z,21.80
2023-07-07T07:01:38.092Z,22.65
2023-07-07T07:04:27.408Z,22.83
2023-07-07T07:07:16.743Z,16.30
2023-07-07T07:10:08.571Z,20.00
2023-07-07T07:12:59.281Z,17.10
2023-07-07T07:15:48.613Z,19.65
2023-07-07T07:18:37.991Z,21.58
2023-07-07T07:21:27.246Z,23.05
2023-07-07T07:24:16.527Z,17.13
2023-07-07T07:27:07.298Z,24.05
2023-07-07T07:29:58.386Z,22.65
2023-07-07T07:32:47.955Z,22.00
2023-07-07T07:35:37.400Z,19.65
2023-07-07T07:38:26.784Z,27.77
2023-07-07T07:41:16.193Z,22.85
2023-07-07T07:44:05.644Z,20.40
2023-07-07T07:46:59.437Z,26.80
2023-07-07T07:49:49.759Z,21.15
2023-07-07T07:52:40.758Z,17.98
2023-07-07T07:55:30.740Z,17.95
2023-07-07T07:58:20.178Z,13.50
2023-07-07T08:01:10.000Z,15.60
2023-07-07T08:04:01.154Z,13.80
2023-07-07T08:06:55.291Z,16.00
2023-07-07T08:09:44.776Z,13.55
2023-07-07T08:12:34.077Z,9.88
2023-07-07T08:15:23.733Z,14.52
2023-07-07T08:18:13.149Z,15.45
2023-07-07T08:21:04.288Z,14.45
2023-07-07T08:23:53.968Z,17.27
2023-07-07T08:26:43.503Z,15.88
2023-07-07T08:29:32.789Z,19.50
2023-07-07T08:32:25.544Z,19.40
2023-07-07T08:35:15.034Z,19.80
2023-07-07T08:38:06.379Z,18.08
2023-07-07T08:40:59.140Z,16.92
2023-07-07T08:46:53.816Z,18.75
2023-07-07T08:49:53.071Z,18.98
2023-07-07T08:53:00.053Z,20.48
2023-07-07T08:56:07.273Z,13.45
2023-07-07T08:59:11.048Z,16.23
2023-07-07T09:02:10.143Z,17.27
2023-07-07T09:05:09.738Z,17.25
2023-07-07T09:08:10.024Z,15.98
2023-07-07T09:11:13.655Z,17.13
2023-07-07T09:14:04.431Z,15.73
2023-07-07T09:16:58.038Z,16.13
2023-07-07T09:19:49.615Z,17.23
2023-07-07T09:22:47.126Z,14.05
2023-07-07T09:25:49.106Z,17.60
2023-07-07T09:28:50.148Z,14.40
2023-07-07T09:31:43.996Z,13.05
2023-07-07T09:34:35.174Z,12.55
2023-07-07T09:37:51.809Z,11.85
2023-07-07T09:40:52.692Z,7.35
2023-07-07T09:43:59.807Z,10.68
2023-07-07T09:46:57.232Z,7.72
2023-07-07T09:49:55.839Z,5.57
2023-07-07T09:52:50.524Z,8.18
2023-07-07T09:55:41.157Z,9.18
2023-07-07T09:58:36.889Z,7.97
2023-07-07T10:01:33.280Z,9.18
2023-07-07T10:04:26.132Z,14.93
2023-07-07T10:07:20.061Z,8.95
2023-07-07T10:10:14.669Z,8.20
2023-07-07T10:13:03.955Z,8.82
2023-07-07T10:15:59.666Z,7.45
2023-07-07T10:18:54.050Z,5.32
2023-07-07T10:21:45.345Z,7.55
2023-07-07T10:24:34.990Z,2.95
2023-07-07T10:27:29.382Z,6.45
2023-07-07T10:30:22.651Z,7.20
2023-07-07T10:33:17.460Z,6.07
2023-07-07T10:36:28.022Z,4.05
2023-07-07T10:39:17.266Z,5.20
2023-07-07T10:42:10.682Z,5.28
2023-07-07T10:45:03.947Z,6.15
2023-07-07T10:47:54.874Z,5.40
2023-07-07T10:51:02.073Z,5.70
2023-07-07T10:54:05.055Z,5.18
2023-07-07T10:57:03.803Z,4.60
2023-07-07T11:03:45.725Z,5.53
2023-07-07T11:06:45.607Z,6.93
2023-07-07T11:10:12.063Z,7.47
2023-07-07T11:13:12.336Z,7.13
2023-07-07T11:16:09.923Z,7.43
2023-07-07T11:19:27.578Z,4.75
2023-07-07T11:22:44.682Z,7.38
2023-07-07T11:25:48.632Z,5.88
2023-07-07T11:28:50.786Z,7.82
2023-07-07T11:32:11.090Z,7.82
2023-07-07T11:35:41.880Z,8.25
2023-07-07T11:38:59.846Z,7.05
2023-07-07T11:42:09.146Z,7.25
2023-07-07T11:45:15.641Z,11.63
2023-07-07T11:48:26.365Z,7.60
2023-07-07T11:51:36.657Z,7.18
2023-07-07T11:54:55.892Z,7.47
2023-07-07T11:58:02.603Z,9.23
2023-07-07T12:01:00.459Z,5.97
2023-07-07T12:03:58.134Z,6.72
2023-07-07T12:06:53.459Z,6.90
2023-07-07T12:09:52.771Z,7.65
2023-07-07T12:12:55.692Z,9.13
2023-07-07T12:18:42.842Z,5.13
2023-07-07T12:21:36.403Z,8.40
2023-07-07T12:24:39.878Z,6.40
2023-07-07T12:27:35.359Z,5.90
2023-07-07T12:30:29.919Z,5.25
2023-07-07T12:33:19.555Z,5.47
2023-07-07T12:36:14.509Z,7.50
2023-07-07T12:39:04.337Z,4.78
2023-07-07T12:41:55.317Z,10.13
2023-07-07T12:44:46.873Z,5.80
2023-07-07T12:47:42.692Z,3.55
2023-07-07T12:50:36.881Z,4.68
2023-07-07T12:53:31.063Z,4.97
2023-07-07T12:56:24.188Z,4.68
2023-07-07T12:59:38.824Z,4.35
2023-07-07T13:02:28.809Z,6.15
2023-07-07T13:05:24.927Z,6.07
2023-07-07T13:08:16.254Z,7.20
2023-07-07T13:11:08.832Z,5.38
2023-07-07T13:16:47.731Z,8.73
2023-07-07T13:19:39.874Z,10.50
2023-07-07T13:22:38.060Z,8.20
2023-07-07T13:25:32.227Z,8.85
2023-07-07T13:28:25.704Z,8.52
2023-07-07T13:31:17.608Z,12.65
2023-07-07T13:34:07.589Z,10.37
2023-07-07T13:36:57.053Z,8.88
2023-07-07T13:39:48.386Z,8.02
2023-07-07T13:42:38.744Z,10.88
2023-07-07T13:45:28.085Z,8.63
2023-07-07T13:48:24.146Z,9.20
2023-07-07T13:51:16.218Z,8.55
2023-07-07T13:54:08.883Z,10.77
2023-07-07T13:57:05.171Z,8.45
2023-07-07T13:59:54.851Z,8.82
2023-07-07T14:02:45.670Z,9.25
2023-07-07T14:05:38.044Z,7.65
2023-07-07T14:08:29.877Z,6.95
2023-07-07T14:11:23.986Z,5.73
2023-07-07T14:14:16.498Z,7.45
2023-07-07T14:17:14.368Z,7.68
2023-07-07T14:20:09.611Z,7.25
2023-07-07T14:23:00.101Z,7.65
2023-07-07T14:25:55.750Z,6.85
2023-07-07T14:28:45.647Z,7.85
2023-07-07T14:31:37.079Z,7.68
2023-07-07T14:34:26.383Z,6.43
2023-07-07T14:37:23.854Z,7.60
2023-07-07T14:40:31.739Z,8.48
2023-07-07T14:43:24.704Z,7.82
2023-07-07T14:46:22.464Z,21.70
2023-07-07T14:49:20.973Z,6.82
2023-07-07T14:52:34.348Z,8.20
2023-07-07T14:55:26.996Z,5.82
2023-07-07T14:58:24.673Z,6.82
2023-07-07T15:01:20.551Z,6.72
2023-07-07T15:04:17.277Z,4.78
2023-07-07T15:07:17.310Z,5.40
2023-07-07T15:10:10.144Z,4.43
2023-07-07T15:12:59.575Z,6.07
2023-07-07T15:15:49.904Z,6.63
2023-07-07T15:18:42.807Z,7.38
2023-07-07T15:21:36.681Z,8.98
2023-07-07T15:24:26.073Z,6.47
2023-07-07T15:27:16.298Z,6.28
2023-07-07T15:30:12.221Z,8.18
2023-07-07T15:33:01.680Z,6.43
2023-07-07T15:35:51.070Z,6.88
2023-07-07T15:39:02.960Z,6.57
2023-07-07T15:41:52.385Z,7.28
2023-07-07T15:44:41.712Z,6.28
2023-07-07T15:47:31.141Z,5.78
2023-07-07T15:50:23.010Z,6.60
2023-07-07T15:53:12.279Z,6.28
2023-07-07T15:56:03.286Z,6.10
2023-07-07T15:58:52.739Z,6.93
2023-07-07T16:01:42.194Z,6.35
2023-07-07T16:04:31.711Z,7.20
2023-07-07T16:07:21.319Z,6.50
2023-07-07T16:10:13.536Z,6.05
2023-07-07T16:13:04.363Z,7.68
2023-07-07T16:15:53.763Z,6.00
2023-07-07T16:18:43.705Z,8.25
2023-07-07T16:21:33.150Z,7.97
2023-07-07T16:24:23.092Z,8.32
2023-07-07T16:27:17.601Z,6.57
2023-07-07T16:30:18.176Z,8.57
2023-07-07T16:33:07.578Z,7.82
2023-07-07T16:35:57.130Z,7.43
2023-07-07T16:38:47.041Z,8.68
2023-07-07T16:41:36.653Z,9.20
2023-07-07T16:44:26.133Z,6.75
2023-07-07T16:47:17.084Z,6.75
2023-07-07T16:50:24.517Z,8.10
2023-07-07T16:53:13.821Z,8.25
2023-07-07T16:56:04.887Z,4.85
2023-07-07T16:58:54.950Z,5.28
2023-07-07T17:01:45.353Z,6.43
2023-07-07T17:04:36.232Z,6.78
2023-07-07T17:07:25.583Z,5.95
2023-07-07T17:10:26.876Z,8.30
2023-07-07T17:13:16.139Z,7.18
2023-07-07T17:16:17.709Z,6.70
2023-07-07T17:19:17.719Z,7.13
2023-07-07T17:22:08.631Z,7.20
2023-07-07T17:24:57.995Z,10.48
2023-07-07T17:27:49.505Z,6.63
2023-07-07T17:30:39.024Z,9.43
2023-07-07T17:33:28.490Z,5.88
2023-07-07T17:36:22.673Z,7.70
2023-07-07T17:39:17.150Z,5.72
2023-07-07T17:42:06.950Z,8.68
2023-07-07T17:44:56.323Z,8.27
2023-07-07T17:47:45.967Z,5.95
2023-07-07T17:50:45.541Z,8.13
2023-07-07T17:53:34.855Z,7.93
2023-07-07T17:56:28.593Z,5.68
2023-07-07T17:59:21.609Z,10.25
2023-07-07T18:02:12.586Z,8.65
2023-07-07T18:05:01.888Z,6.85
2023-07-07T18:07:51.140Z,10.20
2023-07-07T18:10:41.981Z,10.85
2023-07-07T18:13:32.729Z,14.38
2023-07-07T18:16:25.294Z,14.20
2023-07-07T18:19:44.145Z,15.35
2023-07-07T18:22:27.320Z,15.73
2023-07-07T18:25:17.141Z,15.45
2023-07-07T18:28:13.668Z,14.23
2023-07-07T18:31:05.622Z,14.60
2023-07-07T18:33:55.489Z,17.20
2023-07-07T18:36:49.128Z,16.30
2023-07-07T18:39:40.504Z,15.18
2023-07-07T18:42:30.577Z,16.75
2023-07-07T18:45:20.480Z,16.30
2023-07-07T18:48:16.864Z,13.45
2023-07-07T18:51:10.673Z,13.07
2023-07-07T18:54:00.082Z,18.42
2023-07-07T18:56:49.749Z,17.40
2023-07-07T18:59:39.187Z,14.13
2023-07-07T19:02:28.478Z,16.73
2023-07-07T19:05:19.589Z,20.10
2023-07-07T19:08:13.283Z,11.10
2023-07-07T19:11:02.643Z,17.67
2023-07-07T19:13:52.514Z,15.43
2023-07-07T19:16:42.102Z,14.98
2023-07-07T19:19:31.389Z,13.50
2023-07-07T19:22:22.375Z,13.20
2023-07-07T19:25:12.103Z,15.18
2023-07-07T19:28:01.424Z,15.10
2023-07-07T19:30:50.766Z,15.20
2023-07-07T19:33:42.384Z,14.98
2023-07-07T19:36:36.501Z,16.02
2023-07-07T19:39:27.829Z,14.23
2023-07-07T19:42:17.329Z,15.45
2023-07-07T19:45:07.925Z,11.25
2023-07-07T19:47:57.335Z,14.35
2023-07-07T19:50:50.030Z,15.75
2023-07-07T19:53:39.340Z,17.70
2023-07-07T19:56:30.830Z,13.05
2023-07-07T19:59:22.112Z,12.23
2023-07-07T20:02:18.655Z,13.10
2023-07-07T20:05:10.042Z,18.33
2023-07-07T20:07:59.643Z,19.20
2023-07-07T20:10:49.542Z,10.82
2023-07-07T20:13:41.247Z,11.32
2023-07-07T20:16:36.019Z,15.15
2023-07-07T20:19:25.407Z,17.73
2023-07-07T20:22:15.362Z,15.13
2023-07-07T20:25:05.058Z,14.52
2023-07-07T20:27:54.571Z,14.95
2023-07-07T20:30:45.301Z,13.40
2023-07-07T20:33:34.839Z,13.60
2023-07-07T20:36:26.255Z,11.95
2023-07-07T20:39:18.357Z,12.75
2023-07-07T20:42:13.279Z,16.63
2023-07-07T20:45:04.104Z,17.02
2023-07-07T20:47:54.879Z,11.93
2023-07-07T20:50:55.996Z,11.63
2023-07-07T20:53:45.293Z,10.15
2023-07-07T20:56:34.692Z,13.15
2023-07-07T20:59:28.224Z,11.32
2023-07-07T21:02:19.059Z,10.95
2023-07-07T21:05:10.538Z,13.73
2023-07-07T21:07:59.947Z,13.77
2023-07-07T21:10:49.669Z,10.77
2023-07-07T21:13:39.207Z,10.65
2023-07-07T21:16:29.617Z,12.68
2023-07-07T21:19:19.396Z,11.40
2023-07-07T21:22:13.767Z,17.10
2023-07-07T21:25:03.285Z,11.95
2023-07-07T21:27:53.376Z,16.30
2023-07-07T21:30:43.423Z,13.25
2023-07-07T21:33:33.163Z,10.75
2023-07-07T21:36:26.680Z,14.52
2023-07-07T21:39:28.207Z,16.60
2023-07-07T21:42:17.738Z,13.65
2023-07-07T21:45:09.956Z,11.93
2023-07-07T21:48:03.902Z,12.47
2023-07-07T21:50:53.546Z,11.63
2023-07-07T21:53:43.124Z,10.30
2023-07-07T21:56:35.665Z,13.80
2023-07-07T21:59:25.553Z,10.85
2023-07-07T22:02:16.760Z,11.52
2023-07-07T22:05:06.646Z,15.07
2023-07-07T22:07:57.016Z,12.40
2023-07-07T22:10:51.065Z,13.32
2023-07-07T22:13:42.309Z,19.00
2023-07-07T22:16:32.166Z,11.88
2023-07-07T22:19:21.686Z,13.00
2023-07-07T22:22:13.135Z,14.18
2023-07-07T22:25:02.507Z,14.57
2023-07-07T22:27:51.853Z,17.02
2023-07-07T22:30:47.515Z,15.52
2023-07-07T22:33:37.057Z,15.15
2023-07-07T22:36:28.309Z,13.88
2023-07-07T22:39:17.684Z,15.88
2023-07-07T22:42:13.651Z,10.65
2023-07-07T22:45:03.040Z,12.55
2023-07-07T22:47:54.164Z,16.13
2023-07-07T22:50:45.161Z,13.95
2023-07-07T22:53:34.580Z,12.25
2023-07-07T22:56:27.349Z,12.27
2023-07-07T22:59:23.049Z,10.85
2023-07-07T23:02:13.377Z,12.30
2023-07-07T23:05:04.200Z,11.30
2023-07-07T23:07:54.346Z,13.40
2023-07-07T23:10:43.654Z,10.90
2023-07-07T23:13:32.951Z,11.68
2023-07-07T23:16:22.403Z,11.95
2023-07-07T23:19:14.046Z,11.95
2023-07-07T23:22:11.080Z,13.63
2023-07-07T23:25:02.269Z,10.60
2023-07-07T23:27:55.409Z,8.95
2023-07-07T23:30:51.104Z,12.48
2023-07-07T23:33:40.414Z,12.30
2023-07-07T23:36:33.071Z,10.93
2023-07-07T23:39:25.366Z,10.27
2023-07-07T23:42:14.679Z,8.95
2023-07-07T23:45:04.185Z,11.13
2023-07-07T23:47:58.546Z,8.57
2023-07-07T23:50:54.444Z,12.15
2023-07-07T23:53:45.956Z,7.05
2023-07-07T23:56:36.927Z,9.15
2023-07-07T23:59:26.162Z,7.72
